sensor_id;sensor_type;location;lat;lon;timestamp;pressure;altitude;pressure_sealevel;temperature;humidity
57248;BME280;55809;46.618;10.764;2024-03-02T00:00:21;92073.16;;;6.62;100.00
57248;BME280;55809;46.618;10.764;2024-03-02T00:02:49;92076.66;;;6.55;100.00
57248;BME280;55809;46.618;10.764;2024-03-02T00:05:18;92063.63;;;6.53;100.00
57248;BME280;55809;46.618;10.764;2024-03-02T00:07:52;92051.03;;;6.47;100.00
57248;BME280;55809;46.618;10.764;2024-03-02T00:10:22;92058.28;;;6.50;100.00
57248;BME280;55809;46.618;10.764;2024-03-02T00:12:51;92065.91;;;6.55;100.00
57248;BME280;55809;46.618;10.764;2024-03-02T00:15:39;92066.31;;;6.53;100.00
57248;BME280;55809;46.618;10.764;2024-03-02T00:18:07;92069.41;;;6.48;100.00
57248;BME280;55809;46.618;10.764;2024-03-02T00:20:34;92075.53;;;6.49;100.00
57248;BME280;55809;46.618;10.764;2024-03-02T00:23:03;92070.97;;;6.42;100.00
57248;BME280;55809;46.618;10.764;2024-03-02T00:25:37;92070.56;;;6.44;100.00
57248;BME280;55809;46.618;10.764;2024-03-02T00:28:05;92075.91;;;6.47;100.00
57248;BME280;55809;46.618;10.764;2024-03-02T00:30:51;92074.78;;;6.41;100.00
57248;BME280;55809;46.618;10.764;2024-03-02T00:33:20;92059.94;;;6.29;100.00
57248;BME280;55809;46.618;10.764;2024-03-02T00:35:48;92074.00;;;6.44;100.00
57248;BME280;55809;46.618;10.764;2024-03-02T00:38:17;92080.13;;;6.45;100.00
57248;BME280;55809;46.618;10.764;2024-03-02T00:40:44;92073.63;;;6.46;100.00
57248;BME280;55809;46.618;10.764;2024-03-02T00:43:39;92074.41;;;6.46;100.00
57248;BME280;55809;46.618;10.764;2024-03-02T00:46:07;92073.59;;;6.53;100.00
57248;BME280;55809;46.618;10.764;2024-03-02T00:48:34;92077.84;;;6.47;100.00
57248;BME280;55809;46.618;10.764;2024-03-02T00:51:03;92078.19;;;6.52;100.00
57248;BME280;55809;46.618;10.764;2024-03-02T00:53:32;92075.53;;;6.49;100.00
57248;BME280;55809;46.618;10.764;2024-03-02T00:56:00;92076.66;;;6.51;100.00
57248;BME280;55809;46.618;10.764;2024-03-02T00:58:28;92082.00;;;6.55;100.00
57248;BME280;55809;46.618;10.764;2024-03-02T01:00:54;92072.81;;;6.52;100.00
57248;BME280;55809;46.618;10.764;2024-03-02T01:03:21;92070.56;;;6.47;100.00
57248;BME280;55809;46.618;10.764;2024-03-02T01:05:48;92077.44;;;6.45;100.00
57248;BME280;55809;46.618;10.764;2024-03-02T01:08:15;92075.88;;;6.51;100.00
57248;BME280;55809;46.618;10.764;2024-03-02T01:10:44;92071.72;;;6.46;100.00
57248;BME280;55809;46.618;10.764;2024-03-02T01:13:10;92072.44;;;6.50;100.00
57248;BME280;55809;46.618;10.764;2024-03-02T01:15:38;92072.88;;;6.45;100.00
57248;BME280;55809;46.618;10.764;2024-03-02T01:18:05;92069.09;;;6.39;100.00
57248;BME280;55809;46.618;10.764;2024-03-02T01:20:31;92069.47;;;6.38;100.00
57248;BME280;55809;46.618;10.764;2024-03-02T01:22:58;92071.34;;;6.41;100.00
57248;BME280;55809;46.618;10.764;2024-03-02T01:25:25;92068.31;;;6.42;100.00
57248;BME280;55809;46.618;10.764;2024-03-02T01:27:54;92066.41;;;6.39;100.00
57248;BME280;55809;46.618;10.764;2024-03-02T01:30:20;92070.97;;;6.46;100.00
57248;BME280;55809;46.618;10.764;2024-03-02T01:32:48;92064.78;;;6.52;100.00
57248;BME280;55809;46.618;10.764;2024-03-02T01:35:14;92034.31;;;6.25;100.00
57248;BME280;55809;46.618;10.764;2024-03-02T01:37:42;92066.75;;;6.41;100.00
57248;BME280;55809;46.618;10.764;2024-03-02T01:40:10;92064.06;;;6.48;100.00
57248;BME280;55809;46.618;10.764;2024-03-02T01:42:38;92062.47;;;6.51;100.00
57248;BME280;55809;46.618;10.764;2024-03-02T01:45:08;92055.22;;;6.48;100.00
57248;BME280;55809;46.618;10.764;2024-03-02T01:47:35;92066.72;;;6.45;100.00
57248;BME280;55809;46.618;10.764;2024-03-02T01:50:02;92064.84;;;6.45;100.00
57248;BME280;55809;46.618;10.764;2024-03-02T01:52:29;92062.88;;;6.49;100.00
57248;BME280;55809;46.618;10.764;2024-03-02T01:54:56;92066.75;;;6.41;100.00
57248;BME280;55809;46.618;10.764;2024-03-02T01:57:23;92065.59;;;6.46;100.00
57248;BME280;55809;46.618;10.764;2024-03-02T01:59:50;92064.06;;;6.45;100.00
57248;BME280;55809;46.618;10.764;2024-03-02T02:02:19;92057.59;;;6.39;100.00
57248;BME280;55809;46.618;10.764;2024-03-02T02:04:46;92060.53;;;6.58;100.00
57248;BME280;55809;46.618;10.764;2024-03-02T02:07:13;92059.41;;;6.56;100.00
57248;BME280;55809;46.618;10.764;2024-03-02T02:09:41;92058.97;;;6.65;100.00
57248;BME280;55809;46.618;10.764;2024-03-02T02:12:09;92060.19;;;6.53;100.00
57248;BME280;55809;46.618;10.764;2024-03-02T02:14:36;92057.50;;;6.53;100.00
57248;BME280;55809;46.618;10.764;2024-03-02T02:17:05;92058.28;;;6.50;100.00
57248;BME280;55809;46.618;10.764;2024-03-02T02:19:33;92055.25;;;6.44;100.00
57248;BME280;55809;46.618;10.764;2024-03-02T02:22:02;92052.94;;;6.50;100.00
57248;BME280;55809;46.618;10.764;2024-03-02T02:24:29;92050.69;;;6.41;100.00
57248;BME280;55809;46.618;10.764;2024-03-02T02:26:56;91990.44;;;6.04;100.00
57248;BME280;55809;46.618;10.764;2024-03-02T02:29:22;92040.38;;;6.36;100.00
57248;BME280;55809;46.618;10.764;2024-03-02T02:31:49;92040.72;;;6.45;100.00
57248;BME280;55809;46.618;10.764;2024-03-02T02:34:16;92024.38;;;6.25;100.00
57248;BME280;55809;46.618;10.764;2024-03-02T02:36:43;92049.09;;;6.47;100.00
57248;BME280;55809;46.618;10.764;2024-03-02T02:39:15;92005.34;;;6.09;100.00
57248;BME280;55809;46.618;10.764;2024-03-02T02:41:42;92040.00;;;6.34;100.00
57248;BME280;55809;46.618;10.764;2024-03-02T02:44:09;92036.19;;;6.35;100.00
57248;BME280;55809;46.618;10.764;2024-03-02T02:46:38;92044.63;;;6.30;100.00
57248;BME280;55809;46.618;10.764;2024-03-02T02:49:05;92040.38;;;6.36;100.00
57248;BME280;55809;46.618;10.764;2024-03-02T02:51:32;92010.66;;;6.16;100.00
57248;BME280;55809;46.618;10.764;2024-03-02T02:53:59;91956.94;;;5.71;100.00
57248;BME280;55809;46.618;10.764;2024-03-02T02:56:27;92047.69;;;6.32;100.00
57248;BME280;55809;46.618;10.764;2024-03-02T02:58:54;92040.75;;;6.38;100.00
57248;BME280;55809;46.618;10.764;2024-03-02T03:01:21;92041.56;;;6.35;100.00
57248;BME280;55809;46.618;10.764;2024-03-02T03:03:48;92043.78;;;6.40;100.00
57248;BME280;55809;46.618;10.764;2024-03-02T03:06:15;92042.63;;;6.41;100.00
57248;BME280;55809;46.618;10.764;2024-03-02T03:08:42;92049.19;;;6.37;100.00
57248;BME280;55809;46.618;10.764;2024-03-02T03:11:09;92043.84;;;6.33;100.00
57248;BME280;55809;46.618;10.764;2024-03-02T03:13:37;92045.00;;;6.28;100.00
57248;BME280;55809;46.618;10.764;2024-03-02T03:16:04;92040.84;;;6.24;100.00
57248;BME280;55809;46.618;10.764;2024-03-02T03:18:32;92042.78;;;6.20;100.00
57248;BME280;55809;46.618;10.764;2024-03-02T03:20:59;92043.53;;;6.24;100.00
57248;BME280;55809;46.618;10.764;2024-03-02T03:23:26;92048.50;;;6.22;100.00
57248;BME280;55809;46.618;10.764;2024-03-02T03:25:53;92045.44;;;6.23;100.00
57248;BME280;55809;46.618;10.764;2024-03-02T03:28:20;92048.50;;;6.22;100.00
57248;BME280;55809;46.618;10.764;2024-03-02T03:30:48;92045.03;;;6.25;100.00
57248;BME280;55809;46.618;10.764;2024-03-02T03:33:15;92046.97;;;6.21;100.00
57248;BME280;55809;46.618;10.764;2024-03-02T03:35:42;92051.59;;;6.20;100.00
57248;BME280;55809;46.618;10.764;2024-03-02T03:38:08;92058.47;;;6.18;100.00
57248;BME280;55809;46.618;10.764;2024-03-02T03:40:35;92056.91;;;6.24;100.00
57248;BME280;55809;46.618;10.764;2024-03-02T03:43:02;92054.25;;;6.20;100.00
57248;BME280;55809;46.618;10.764;2024-03-02T03:45:29;92056.91;;;6.24;100.00
57248;BME280;55809;46.618;10.764;2024-03-02T03:47:58;92059.97;;;6.26;100.00
57248;BME280;55809;46.618;10.764;2024-03-02T03:50:25;92059.22;;;6.25;100.00
57248;BME280;55809;46.618;10.764;2024-03-02T03:52:51;92046.97;;;6.24;100.00
57248;BME280;55809;46.618;10.764;2024-03-02T03:55:18;92058.06;;;6.26;100.00
57248;BME280;55809;46.618;10.764;2024-03-02T03:57:45;92070.66;;;6.29;100.00
57248;BME280;55809;46.618;10.764;2024-03-02T04:00:13;92060.72;;;6.26;100.00
57248;BME280;55809;46.618;10.764;2024-03-02T04:02:40;92064.19;;;6.23;100.00
57248;BME280;55809;46.618;10.764;2024-03-02T04:05:09;92069.94;;;6.25;100.00
57248;BME280;55809;46.618;10.764;2024-03-02T04:07:36;92069.88;;;6.32;100.00
57248;BME280;55809;46.618;10.764;2024-03-02T04:10:09;92070.66;;;6.29;100.00
57248;BME280;55809;46.618;10.764;2024-03-02T04:12:37;92070.31;;;6.24;100.00
57248;BME280;55809;46.618;10.764;2024-03-02T04:15:05;92077.53;;;6.34;100.00
57248;BME280;55809;46.618;10.764;2024-03-02T04:17:32;92075.28;;;6.29;100.00
57248;BME280;55809;46.618;10.764;2024-03-02T04:20:01;92049.69;;;6.14;100.00
57248;BME280;55809;46.618;10.764;2024-03-02T04:22:33;92000.13;;;5.80;100.00
57248;BME280;55809;46.618;10.764;2024-03-02T04:25:01;92067.25;;;6.25;100.00
57248;BME280;55809;46.618;10.764;2024-03-02T04:27:30;92075.31;;;6.18;100.00
57248;BME280;55809;46.618;10.764;2024-03-02T04:29:57;92077.56;;;6.27;100.00
57248;BME280;55809;46.618;10.764;2024-03-02T04:32:25;92078.72;;;6.29;100.00
57248;BME280;55809;46.618;10.764;2024-03-02T04:34:52;92085.22;;;6.28;100.00
57248;BME280;55809;46.618;10.764;2024-03-02T04:37:20;92090.19;;;6.30;100.00
57248;BME280;55809;46.618;10.764;2024-03-02T04:39:48;92084.84;;;6.26;100.00
57248;BME280;55809;46.618;10.764;2024-03-02T04:42:15;92086.00;;;6.29;100.00
57248;BME280;55809;46.618;10.764;2024-03-02T04:44:42;92086.00;;;6.25;100.00
57248;BME280;55809;46.618;10.764;2024-03-02T04:47:09;92082.53;;;6.25;100.00
57248;BME280;55809;46.618;10.764;2024-03-02T04:49:36;92092.53;;;6.21;100.00
57248;BME280;55809;46.618;10.764;2024-03-02T04:52:03;92090.22;;;6.23;100.00
57248;BME280;55809;46.618;10.764;2024-03-02T04:54:30;92088.69;;;6.29;100.00
57248;BME280;55809;46.618;10.764;2024-03-02T04:56:58;92067.75;;;6.06;100.00
57248;BME280;55809;46.618;10.764;2024-03-02T04:59:27;92092.88;;;6.30;100.00
57248;BME280;55809;46.618;10.764;2024-03-02T05:01:53;92089.50;;;6.19;100.00
57248;BME280;55809;46.618;10.764;2024-03-02T05:04:20;92022.72;;;5.69;100.00
57248;BME280;55809;46.618;10.764;2024-03-02T05:06:47;92103.59;;;6.26;100.00
57248;BME280;55809;46.618;10.764;2024-03-02T05:09:18;92110.06;;;6.36;100.00
57248;BME280;55809;46.618;10.764;2024-03-02T05:11:44;92107.44;;;6.25;100.00
57248;BME280;55809;46.618;10.764;2024-03-02T05:14:38;92113.19;;;6.24;100.00
57248;BME280;55809;46.618;10.764;2024-03-02T05:17:05;92116.66;;;6.17;100.00
57248;BME280;55809;46.618;10.764;2024-03-02T05:19:32;92115.16;;;6.13;100.00
57248;BME280;55809;46.618;10.764;2024-03-02T05:21:59;92118.16;;;6.22;100.00
57248;BME280;55809;46.618;10.764;2024-03-02T05:24:26;92117.03;;;6.23;100.00
57248;BME280;55809;46.618;10.764;2024-03-02T05:26:53;92114.38;;;6.19;100.00
57248;BME280;55809;46.618;10.764;2024-03-02T05:29:20;92120.53;;;6.09;100.00
57248;BME280;55809;46.618;10.764;2024-03-02T05:31:49;92129.34;;;6.09;100.00
57248;BME280;55809;46.618;10.764;2024-03-02T05:34:16;92125.09;;;6.08;100.00
57248;BME280;55809;46.618;10.764;2024-03-02T05:36:44;92124.72;;;6.14;100.00
57248;BME280;55809;46.618;10.764;2024-03-02T05:39:10;92128.94;;;6.11;100.00
57248;BME280;55809;46.618;10.764;2024-03-02T05:41:37;92133.50;;;6.14;100.00
57248;BME280;55809;46.618;10.764;2024-03-02T05:44:04;92054.84;;;5.69;100.00
57248;BME280;55809;46.618;10.764;2024-03-02T05:46:31;92127.00;;;6.19;100.00
57248;BME280;55809;46.618;10.764;2024-03-02T05:49:00;92131.25;;;6.09;100.00
57248;BME280;55809;46.618;10.764;2024-03-02T05:51:27;92138.88;;;6.14;100.00
57248;BME280;55809;46.618;10.764;2024-03-02T05:53:54;92130.47;;;6.16;100.00
57248;BME280;55809;46.618;10.764;2024-03-02T05:56:20;92135.06;;;6.11;100.00
57248;BME280;55809;46.618;10.764;2024-03-02T05:58:47;92124.38;;;6.04;100.00
57248;BME280;55809;46.618;10.764;2024-03-02T06:01:26;92132.38;;;6.08;100.00
57248;BME280;55809;46.618;10.764;2024-03-02T06:03:55;92135.06;;;6.08;100.00
57248;BME280;55809;46.618;10.764;2024-03-02T06:06:24;92140.78;;;6.17;100.00
57248;BME280;55809;46.618;10.764;2024-03-02T06:08:50;92137.34;;;6.17;100.00
57248;BME280;55809;46.618;10.764;2024-03-02T06:11:19;92149.97;;;6.16;100.00
57248;BME280;55809;46.618;10.764;2024-03-02T06:13:46;92138.84;;;6.21;100.00
57248;BME280;55809;46.618;10.764;2024-03-02T06:16:13;92146.47;;;6.30;100.00
57248;BME280;55809;46.618;10.764;2024-03-02T06:18:40;92147.97;;;6.31;100.00
57248;BME280;55809;46.618;10.764;2024-03-02T06:21:07;92152.59;;;6.27;100.00
57248;BME280;55809;46.618;10.764;2024-03-02T06:23:36;92149.50;;;6.39;100.00
57248;BME280;55809;46.618;10.764;2024-03-02T06:26:03;92155.66;;;6.29;100.00
57248;BME280;55809;46.618;10.764;2024-03-02T06:28:30;92158.34;;;6.29;100.00
57248;BME280;55809;46.618;10.764;2024-03-02T06:30:57;92128.53;;;6.16;100.00
57248;BME280;55809;46.618;10.764;2024-03-02T06:33:24;92134.25;;;6.22;100.00
57248;BME280;55809;46.618;10.764;2024-03-02T06:35:51;92154.84;;;6.39;100.00
57248;BME280;55809;46.618;10.764;2024-03-02T06:38:18;92118.25;;;6.04;100.00
57248;BME280;55809;46.618;10.764;2024-03-02T06:40:46;92152.22;;;6.32;100.00
57248;BME280;55809;46.618;10.764;2024-03-02T06:43:13;92159.47;;;6.35;100.00
57248;BME280;55809;46.618;10.764;2024-03-02T06:45:40;92158.66;;;6.38;100.00
57248;BME280;55809;46.618;10.764;2024-03-02T06:48:07;92152.91;;;6.43;100.00
57248;BME280;55809;46.618;10.764;2024-03-02T06:50:34;92162.13;;;6.42;100.00
57248;BME280;55809;46.618;10.764;2024-03-02T06:53:01;92165.53;;;6.46;100.00
57248;BME280;55809;46.618;10.764;2024-03-02T06:55:29;92159.06;;;6.40;100.00
57248;BME280;55809;46.618;10.764;2024-03-02T06:57:58;92164.81;;;6.39;100.00
57248;BME280;55809;46.618;10.764;2024-03-02T07:00:24;92152.50;;;6.45;100.00
57248;BME280;55809;46.618;10.764;2024-03-02T07:02:51;92161.69;;;6.47;100.00
57248;BME280;55809;46.618;10.764;2024-03-02T07:05:18;92166.66;;;6.52;100.00
57248;BME280;55809;46.618;10.764;2024-03-02T07:07:46;92175.47;;;6.49;100.00
57248;BME280;55809;46.618;10.764;2024-03-02T07:10:13;92170.13;;;6.49;100.00
57248;BME280;55809;46.618;10.764;2024-03-02T07:12:40;92178.22;;;6.39;100.00
57248;BME280;55809;46.618;10.764;2024-03-02T07:15:09;92166.38;;;6.29;100.00
57248;BME280;55809;46.618;10.764;2024-03-02T07:18:03;92173.63;;;6.39;100.00
57248;BME280;55809;46.618;10.764;2024-03-02T07:20:30;92170.50;;;6.44;100.00
57248;BME280;55809;46.618;10.764;2024-03-02T07:22:57;92175.09;;;6.47;100.00
57248;BME280;55809;46.618;10.764;2024-03-02T07:25:24;92181.94;;;6.59;100.00
57248;BME280;55809;46.618;10.764;2024-03-02T07:27:51;92181.50;;;6.64;100.00
57248;BME280;55809;46.618;10.764;2024-03-02T07:30:20;92194.53;;;6.69;100.00
57248;BME280;55809;46.618;10.764;2024-03-02T07:32:50;92186.47;;;6.69;100.00
57248;BME280;55809;46.618;10.764;2024-03-02T07:35:17;92198.75;;;6.67;100.00
57248;BME280;55809;46.618;10.764;2024-03-02T07:37:44;92189.13;;;6.73;100.00
57248;BME280;55809;46.618;10.764;2024-03-02T07:40:11;92193.38;;;6.67;100.00
57248;BME280;55809;46.618;10.764;2024-03-02T07:42:40;92189.16;;;6.69;100.00
57248;BME280;55809;46.618;10.764;2024-03-02T07:45:07;92191.44;;;6.71;100.00
57248;BME280;55809;46.618;10.764;2024-03-02T07:47:35;92194.47;;;6.76;100.00
57248;BME280;55809;46.618;10.764;2024-03-02T07:50:03;92192.56;;;6.77;100.00
57248;BME280;55809;46.618;10.764;2024-03-02T07:52:31;92193.31;;;6.85;100.00
57248;BME280;55809;46.618;10.764;2024-03-02T07:54:58;92199.78;;;6.87;100.00
57248;BME280;55809;46.618;10.764;2024-03-02T07:57:25;92198.66;;;6.88;100.00
57248;BME280;55809;46.618;10.764;2024-03-02T07:59:52;92171.09;;;6.77;100.00
57248;BME280;55809;46.618;10.764;2024-03-02T08:02:20;92205.44;;;7.03;100.00
57248;BME280;55809;46.618;10.764;2024-03-02T08:04:48;92202.69;;;7.11;100.00
57248;BME280;55809;46.618;10.764;2024-03-02T08:07:16;92197.75;;;7.05;100.00
57248;BME280;55809;46.618;10.764;2024-03-02T08:09:43;92195.38;;;7.18;100.00
57248;BME280;55809;46.618;10.764;2024-03-02T08:12:10;92202.59;;;7.28;100.00
57248;BME280;55809;46.618;10.764;2024-03-02T08:14:36;92200.16;;;7.45;100.00
57248;BME280;55809;46.618;10.764;2024-03-02T08:17:03;92208.47;;;7.61;100.00
57248;BME280;55809;46.618;10.764;2024-03-02T08:19:35;92204.28;;;8.32;100.00
57248;BME280;55809;46.618;10.764;2024-03-02T08:22:04;92209.13;;;8.14;100.00
57248;BME280;55809;46.618;10.764;2024-03-02T08:24:31;92211.28;;;8.26;100.00
57248;BME280;55809;46.618;10.764;2024-03-02T08:26:58;92212.53;;;8.86;100.00
57248;BME280;55809;46.618;10.764;2024-03-02T08:29:25;92210.25;;;8.81;100.00
57248;BME280;55809;46.618;10.764;2024-03-02T08:31:53;92103.00;;;7.91;100.00
57248;BME280;55809;46.618;10.764;2024-03-02T08:34:20;92220.41;;;9.01;100.00
57248;BME280;55809;46.618;10.764;2024-03-02T08:36:47;92216.84;;;9.07;100.00
57248;BME280;55809;46.618;10.764;2024-03-02T08:39:15;92218.97;;;9.47;100.00
57248;BME280;55809;46.618;10.764;2024-03-02T08:41:44;92218.88;;;9.27;100.00
57248;BME280;55809;46.618;10.764;2024-03-02T08:44:12;92221.31;;;9.45;100.00
57248;BME280;55809;46.618;10.764;2024-03-02T08:46:39;92186.06;;;9.59;100.00
57248;BME280;55809;46.618;10.764;2024-03-02T08:49:06;92219.22;;;10.03;100.00
57248;BME280;55809;46.618;10.764;2024-03-02T08:51:33;92220.03;;;9.53;100.00
57248;BME280;55809;46.618;10.764;2024-03-02T08:54:00;92215.59;;;9.66;100.00
57248;BME280;55809;46.618;10.764;2024-03-02T08:56:29;92215.09;;;10.18;100.00
57248;BME280;55809;46.618;10.764;2024-03-02T08:58:56;92217.03;;;10.61;100.00
57248;BME280;55809;46.618;10.764;2024-03-02T09:01:23;92208.84;;;10.85;100.00
57248;BME280;55809;46.618;10.764;2024-03-02T09:03:50;92204.28;;;11.18;100.00
57248;BME280;55809;46.618;10.764;2024-03-02T09:06:18;92211.91;;;11.39;100.00
57248;BME280;55809;46.618;10.764;2024-03-02T09:08:46;92203.13;;;11.68;100.00
57248;BME280;55809;46.618;10.764;2024-03-02T09:11:15;92210.69;;;11.93;100.00
57248;BME280;55809;46.618;10.764;2024-03-02T09:13:43;92209.72;;;12.16;100.00
57248;BME280;55809;46.618;10.764;2024-03-02T09:16:11;92206.94;;;12.03;100.00
57248;BME280;55809;46.618;10.764;2024-03-02T09:18:37;92202.63;;;12.06;100.00
57248;BME280;55809;46.618;10.764;2024-03-02T09:21:04;92203.38;;;12.23;100.00
57248;BME280;55809;46.618;10.764;2024-03-02T09:23:32;92198.41;;;12.21;100.00
57248;BME280;55809;46.618;10.764;2024-03-02T09:25:59;92207.38;;;12.18;100.00
57248;BME280;55809;46.618;10.764;2024-03-02T09:28:26;92196.63;;;12.43;100.00
57248;BME280;55809;46.618;10.764;2024-03-02T09:30:54;92200.53;;;12.42;100.00
57248;BME280;55809;46.618;10.764;2024-03-02T09:33:21;92204.44;;;11.96;100.00
57248;BME280;55809;46.618;10.764;2024-03-02T09:35:48;92201.78;;;11.60;100.00
57248;BME280;55809;46.618;10.764;2024-03-02T09:38:15;92191.34;;;11.62;100.00
57248;BME280;55809;46.618;10.764;2024-03-02T09:40:43;92191.47;;;11.71;100.00
57248;BME280;55809;46.618;10.764;2024-03-02T09:43:10;92192.34;;;11.84;100.00
57248;BME280;55809;46.618;10.764;2024-03-02T09:45:37;92187.84;;;11.78;100.00
57248;BME280;55809;46.618;10.764;2024-03-02T09:48:06;92189.63;;;11.51;100.00
57248;BME280;55809;46.618;10.764;2024-03-02T09:50:33;92193.16;;;11.97;100.00
57248;BME280;55809;46.618;10.764;2024-03-02T09:53:00;92192.97;;;12.21;100.00
57248;BME280;55809;46.618;10.764;2024-03-02T09:55:28;92192.69;;;12.32;100.00
57248;BME280;55809;46.618;10.764;2024-03-02T09:57:55;92191.56;;;12.46;100.00
57248;BME280;55809;46.618;10.764;2024-03-02T10:00:22;92189.56;;;12.33;100.00
57248;BME280;55809;46.618;10.764;2024-03-02T10:02:50;92194.41;;;12.26;100.00
57248;BME280;55809;46.618;10.764;2024-03-02T10:05:27;92185.38;;;12.16;100.00
57248;BME280;55809;46.618;10.764;2024-03-02T10:08:00;92188.44;;;12.18;100.00
57248;BME280;55809;46.618;10.764;2024-03-02T10:10:35;92192.66;;;12.19;100.00
57248;BME280;55809;46.618;10.764;2024-03-02T10:13:06;92192.97;;;12.21;100.00
57248;BME280;55809;46.618;10.764;2024-03-02T10:15:34;92193.06;;;12.47;100.00
57248;BME280;55809;46.618;10.764;2024-03-02T10:18:03;92183.03;;;12.47;100.00
57248;BME280;55809;46.618;10.764;2024-03-02T10:20:31;92176.66;;;12.54;100.00
57248;BME280;55809;46.618;10.764;2024-03-02T10:23:10;92187.38;;;12.28;100.00
57248;BME280;55809;46.618;10.764;2024-03-02T10:25:37;92186.06;;;12.04;100.00
57248;BME280;55809;46.618;10.764;2024-03-02T10:28:04;92183.28;;;12.07;100.00
57248;BME280;55809;46.618;10.764;2024-03-02T10:30:32;92179.41;;;12.08;100.00
57248;BME280;55809;46.618;10.764;2024-03-02T10:33:00;92183.53;;;11.80;100.00
57248;BME280;55809;46.618;10.764;2024-03-02T10:35:27;92111.09;;;11.26;100.00
57248;BME280;55809;46.618;10.764;2024-03-02T10:37:58;92172.56;;;11.71;100.00
57248;BME280;55809;46.618;10.764;2024-03-02T10:40:26;92174.00;;;11.26;100.00
57248;BME280;55809;46.618;10.764;2024-03-02T10:42:53;92182.13;;;11.43;100.00
57248;BME280;55809;46.618;10.764;2024-03-02T10:45:20;92168.44;;;11.50;100.00
57248;BME280;55809;46.618;10.764;2024-03-02T10:47:50;92104.03;;;11.16;100.00
57248;BME280;55809;46.618;10.764;2024-03-02T10:50:17;92173.81;;;11.83;100.00
57248;BME280;55809;46.618;10.764;2024-03-02T10:52:44;92146.22;;;11.75;100.00
57248;BME280;55809;46.618;10.764;2024-03-02T10:55:13;92160.25;;;11.86;100.00
57248;BME280;55809;46.618;10.764;2024-03-02T10:57:51;92163.03;;;11.50;100.00
57248;BME280;55809;46.618;10.764;2024-03-02T11:00:19;92111.19;;;11.22;100.00
57248;BME280;55809;46.618;10.764;2024-03-02T11:02:51;92152.31;;;11.63;100.00
57248;BME280;55809;46.618;10.764;2024-03-02T11:05:26;92146.16;;;11.46;100.00
57248;BME280;55809;46.618;10.764;2024-03-02T11:07:57;92150.88;;;11.25;100.00
57248;BME280;55809;46.618;10.764;2024-03-02T11:10:34;92138.84;;;10.94;100.00
57248;BME280;55809;46.618;10.764;2024-03-02T11:13:05;92106.53;;;10.54;100.00
57248;BME280;55809;46.618;10.764;2024-03-02T11:15:34;92136.94;;;10.74;100.00
57248;BME280;55809;46.618;10.764;2024-03-02T11:18:03;92126.63;;;10.53;100.00
57248;BME280;55809;46.618;10.764;2024-03-02T11:20:36;92134.97;;;10.39;100.00
57248;BME280;55809;46.618;10.764;2024-03-02T11:23:08;92137.81;;;10.31;100.00
57248;BME280;55809;46.618;10.764;2024-03-02T11:25:37;92129.84;;;10.24;100.00
57248;BME280;55809;46.618;10.764;2024-03-02T11:28:05;92135.31;;;10.21;100.00
57248;BME280;55809;46.618;10.764;2024-03-02T11:30:50;92134.97;;;10.19;100.00
57248;BME280;55809;46.618;10.764;2024-03-02T11:33:24;92122.81;;;10.10;100.00
57248;BME280;55809;46.618;10.764;2024-03-02T11:35:56;92117.59;;;10.20;100.00
57248;BME280;55809;46.618;10.764;2024-03-02T11:38:22;92113.38;;;10.19;100.00
57248;BME280;55809;46.618;10.764;2024-03-02T11:40:52;92079.09;;;9.79;100.00
57248;BME280;55809;46.618;10.764;2024-03-02T11:43:19;92114.22;;;9.96;100.00
57248;BME280;55809;46.618;10.764;2024-03-02T11:45:46;92103.34;;;9.99;100.00
57248;BME280;55809;46.618;10.764;2024-03-02T11:48:14;92096.81;;;10.00;100.00
57248;BME280;55809;46.618;10.764;2024-03-02T11:50:47;92101.09;;;9.98;100.00
57248;BME280;55809;46.618;10.764;2024-03-02T11:53:16;92101.31;;;10.07;100.00
57248;BME280;55809;46.618;10.764;2024-03-02T11:55:46;92088.44;;;10.15;100.00
57248;BME280;55809;46.618;10.764;2024-03-02T11:58:17;92054.44;;;10.01;100.00
57248;BME280;55809;46.618;10.764;2024-03-02T12:00:47;92087.59;;;10.38;100.00
57248;BME280;55809;46.618;10.764;2024-03-02T12:03:21;92076.81;;;10.38;100.00
57248;BME280;55809;46.618;10.764;2024-03-02T12:05:53;92080.75;;;10.33;100.00
57248;BME280;55809;46.618;10.764;2024-03-02T12:08:20;92074.19;;;10.34;100.00
57248;BME280;55809;46.618;10.764;2024-03-02T12:11:01;92073.44;;;10.33;100.00
57248;BME280;55809;46.618;10.764;2024-03-02T12:13:35;92069.06;;;10.40;100.00
57248;BME280;55809;46.618;10.764;2024-03-02T12:16:04;92054.31;;;10.44;100.00
57248;BME280;55809;46.618;10.764;2024-03-02T12:18:32;92039.88;;;10.35;100.00
57248;BME280;55809;46.618;10.764;2024-03-02T12:20:59;91996.00;;;10.14;100.00
57248;BME280;55809;46.618;10.764;2024-03-02T12:23:29;92058.53;;;10.45;100.00
57248;BME280;55809;46.618;10.764;2024-03-02T12:25:58;92044.94;;;10.32;100.00
57248;BME280;55809;46.618;10.764;2024-03-02T12:28:27;92051.09;;;10.33;100.00
57248;BME280;55809;46.618;10.764;2024-03-02T12:30:57;92044.84;;;10.36;100.00
57248;BME280;55809;46.618;10.764;2024-03-02T12:33:25;92051.50;;;10.31;100.00
57248;BME280;55809;46.618;10.764;2024-03-02T12:35:57;92032.34;;;10.26;100.00
57248;BME280;55809;46.618;10.764;2024-03-02T12:38:25;92024.81;;;10.17;100.00
57248;BME280;55809;46.618;10.764;2024-03-02T12:41:00;92040.94;;;10.21;100.00
57248;BME280;55809;46.618;10.764;2024-03-02T12:43:30;92031.66;;;10.22;100.00
57248;BME280;55809;46.618;10.764;2024-03-02T12:46:00;92029.72;;;10.22;100.00
57248;BME280;55809;46.618;10.764;2024-03-02T12:48:28;92034.16;;;10.13;100.00
57248;BME280;55809;46.618;10.764;2024-03-02T12:50:55;92030.78;;;10.08;100.00
57248;BME280;55809;46.618;10.764;2024-03-02T12:53:22;92013.63;;;9.99;100.00